sensor_id;sensor_type;location;lat;lon;timestamp;pressure;altitude;pressure_sealevel;temperature;humidity
41383;BME280;27971;53.902;9.118;2022-09-17T00:00:06;100506.0;;;25.37;28.69
41383;BME280;27971;53.902;9.118;2022-09-17T00:02:07;100509.0;;;25.37;28.61
41383;BME280;27971;53.902;9.118;2022-09-17T00:04:10;100510.0;;;25.39;28.63
41383;BME280;27971;53.902;9.118;2022-09-17T00:06:12;100511.0;;;25.35;28.68
41383;BME280;27971;53.902;9.118;2022-09-17T00:08:15;100510.0;;;25.3;28.73
41383;BME280;27971;53.902;9.118;2022-09-17T00:10:18;100506.0;;;25.31;28.71
41383;BME280;27971;53.902;9.118;2022-09-17T00:12:20;100505.0;;;25.32;28.66
41383;BME280;27971;53.902;9.118;2022-09-17T00:14:22;100507.0;;;25.11;28.93
41383;BME280;27971;53.902;9.118;2022-09-17T00:16:27;100512.0;;;23.82;30.11
41383;BME280;27971;53.902;9.118;2022-09-17T00:18:27;100513.0;;;24.02;29.99
41383;BME280;27971;53.902;9.118;2022-09-17T00:20:30;100513.0;;;23.95;30.11
41383;BME280;27971;53.902;9.118;2022-09-17T00:22:32;100511.0;;;24.23;29.87
41383;BME280;27971;53.902;9.118;2022-09-17T00:24:35;100513.0;;;23.96;30.07
41383;BME280;27971;53.902;9.118;2022-09-17T00:26:38;100514.0;;;24.23;29.84
41383;BME280;27971;53.902;9.118;2022-09-17T00:28:41;100517.0;;;23.74;30.3
41383;BME280;27971;53.902;9.118;2022-09-17T00:30:45;100517.0;;;23.76;30.26
41383;BME280;27971;53.902;9.118;2022-09-17T00:32:46;100517.0;;;24.0;30.0
41383;BME280;27971;53.902;9.118;2022-09-17T00:34:49;100519.0;;;24.46;29.57
41383;BME280;27971;53.902;9.118;2022-09-17T00:36:51;100520.0;;;24.53;29.47
41383;BME280;27971;53.902;9.118;2022-09-17T00:38:55;100523.0;;;24.19;29.9
41383;BME280;27971;53.902;9.118;2022-09-17T00:40:57;100523.0;;;24.27;29.78
41383;BME280;27971;53.902;9.118;2022-09-17T00:42:59;100522.0;;;24.36;29.66
41383;BME280;27971;53.902;9.118;2022-09-17T00:45:02;100521.0;;;24.39;29.62
41383;BME280;27971;53.902;9.118;2022-09-17T00:47:06;100520.0;;;24.55;29.46
41383;BME280;27971;53.902;9.118;2022-09-17T00:49:11;100516.0;;;24.61;29.38
41383;BME280;27971;53.902;9.118;2022-09-17T00:51:14;100514.0;;;24.6;29.45
41383;BME280;27971;53.902;9.118;2022-09-17T00:53:15;100512.0;;;24.2;29.92
41383;BME280;27971;53.902;9.118;2022-09-17T00:55:18;100513.0;;;24.07;30.06
41383;BME280;27971;53.902;9.118;2022-09-17T00:57:18;100514.0;;;24.37;29.64
41383;BME280;27971;53.902;9.118;2022-09-17T00:59:21;100518.0;;;24.33;29.72
41383;BME280;27971;53.902;9.118;2022-09-17T01:01:24;100521.0;;;24.65;29.4
41383;BME280;27971;53.902;9.118;2022-09-17T01:03:26;100521.0;;;24.8;29.24
41383;BME280;27971;53.902;9.118;2022-09-17T01:05:34;100520.0;;;24.88;29.05
41383;BME280;27971;53.902;9.118;2022-09-17T01:07:44;100517.0;;;24.9;29.03
41383;BME280;27971;53.902;9.118;2022-09-17T01:09:44;100516.0;;;24.86;29.18
41383;BME280;27971;53.902;9.118;2022-09-17T01:11:54;100516.0;;;24.78;29.2
41383;BME280;27971;53.902;9.118;2022-09-17T01:13:53;100519.0;;;25.06;28.98
41383;BME280;27971;53.902;9.118;2022-09-17T01:15:50;100518.0;;;25.05;28.98
41383;BME280;27971;53.902;9.118;2022-09-17T01:17:56;100514.0;;;25.28;28.8
41383;BME280;27971;53.902;9.118;2022-09-17T01:20:20;100511.0;;;25.33;28.76
41383;BME280;27971;53.902;9.118;2022-09-17T01:21:59;100512.0;;;25.29;28.86
41383;BME280;27971;53.902;9.118;2022-09-17T01:24:30;100510.0;;;25.21;28.89
41383;BME280;27971;53.902;9.118;2022-09-17T01:26:11;100508.0;;;25.21;29.0
41383;BME280;27971;53.902;9.118;2022-09-17T01:28:29;100507.0;;;25.18;28.97
41383;BME280;27971;53.902;9.118;2022-09-17T01:30:16;100513.0;;;25.16;29.03
41383;BME280;27971;53.902;9.118;2022-09-17T01:32:11;100518.0;;;25.05;29.06
41383;BME280;27971;53.902;9.118;2022-09-17T01:34:17;100521.0;;;24.88;29.2
41383;BME280;27971;53.902;9.118;2022-09-17T01:36:21;100520.0;;;24.93;29.12
41383;BME280;27971;53.902;9.118;2022-09-17T01:38:24;100523.0;;;25.1;29.02
41383;BME280;27971;53.902;9.118;2022-09-17T01:40:23;100526.0;;;25.11;29.02
41383;BME280;27971;53.902;9.118;2022-09-17T01:42:25;100529.0;;;25.11;29.0
41383;BME280;27971;53.902;9.118;2022-09-17T01:44:28;100531.0;;;25.15;28.92
41383;BME280;27971;53.902;9.118;2022-09-17T01:46:31;100530.0;;;24.97;29.06
41383;BME280;27971;53.902;9.118;2022-09-17T01:48:33;100531.0;;;24.98;29.06
41383;BME280;27971;53.902;9.118;2022-09-17T01:50:40;100532.0;;;25.03;28.97
41383;BME280;27971;53.902;9.118;2022-09-17T01:52:37;100529.0;;;24.92;29.08
41383;BME280;27971;53.902;9.118;2022-09-17T01:54:41;100530.0;;;25.03;28.99
41383;BME280;27971;53.902;9.118;2022-09-17T01:56:46;100533.0;;;25.1;28.91
41383;BME280;27971;53.902;9.118;2022-09-17T01:58:48;100535.0;;;25.12;28.88
41383;BME280;27971;53.902;9.118;2022-09-17T02:00:50;100534.0;;;25.17;28.8
41383;BME280;27971;53.902;9.118;2022-09-17T02:02:55;100528.0;;;25.17;28.82
41383;BME280;27971;53.902;9.118;2022-09-17T02:04:56;100525.0;;;25.19;28.8
41383;BME280;27971;53.902;9.118;2022-09-17T02:06:58;100529.0;;;25.0;28.97
41383;BME280;27971;53.902;9.118;2022-09-17T02:09:01;100528.0;;;25.0;28.94
41383;BME280;27971;53.902;9.118;2022-09-17T02:11:06;100525.0;;;25.22;28.68
41383;BME280;27971;53.902;9.118;2022-09-17T02:13:07;100528.0;;;25.13;28.79
41383;BME280;27971;53.902;9.118;2022-09-17T02:15:10;100529.0;;;25.05;28.86
41383;BME280;27971;53.902;9.118;2022-09-17T02:17:15;100525.0;;;25.19;28.71
41383;BME280;27971;53.902;9.118;2022-09-17T02:19:17;100524.0;;;25.06;28.84
41383;BME280;27971;53.902;9.118;2022-09-17T02:21:21;100521.0;;;25.11;28.78
41383;BME280;27971;53.902;9.118;2022-09-17T02:23:23;100520.0;;;25.08;28.84
41383;BME280;27971;53.902;9.118;2022-09-17T02:25:27;100519.0;;;25.0;28.89
41383;BME280;27971;53.902;9.118;2022-09-17T02:27:32;100525.0;;;25.12;28.81
41383;BME280;27971;53.902;9.118;2022-09-17T02:29:32;100529.0;;;25.0;28.9
41383;BME280;27971;53.902;9.118;2022-09-17T02:31:31;100537.0;;;25.09;28.83
41383;BME280;27971;53.902;9.118;2022-09-17T02:33:35;100539.0;;;25.11;28.83
41383;BME280;27971;53.902;9.118;2022-09-17T02:35:37;100537.0;;;25.06;28.85
41383;BME280;27971;53.902;9.118;2022-09-17T02:37:39;100537.0;;;25.01;28.9
41383;BME280;27971;53.902;9.118;2022-09-17T02:39:42;100533.0;;;25.04;28.88
41383;BME280;27971;53.902;9.118;2022-09-17T02:41:50;100529.0;;;25.09;28.84
41383;BME280;27971;53.902;9.118;2022-09-17T02:43:54;100529.0;;;25.1;28.83
41383;BME280;27971;53.902;9.118;2022-09-17T02:46:00;100526.0;;;25.02;28.93
41383;BME280;27971;53.902;9.118;2022-09-17T02:48:04;100528.0;;;25.02;28.91
41383;BME280;27971;53.902;9.118;2022-09-17T02:50:05;100527.0;;;24.99;28.97
41383;BME280;27971;53.902;9.118;2022-09-17T02:52:05;100525.0;;;24.97;29.0
41383;BME280;27971;53.902;9.118;2022-09-17T02:54:07;100527.0;;;24.91;29.03
41383;BME280;27971;53.902;9.118;2022-09-17T02:56:10;100531.0;;;24.94;28.98
41383;BME280;27971;53.902;9.118;2022-09-17T02:58:16;100536.0;;;25.01;28.89
41383;BME280;27971;53.902;9.118;2022-09-17T03:00:13;100539.0;;;25.04;28.9
41383;BME280;27971;53.902;9.118;2022-09-17T03:02:17;100540.0;;;24.93;28.94
41383;BME280;27971;53.902;9.118;2022-09-17T03:04:15;100539.0;;;24.9;29.0
41383;BME280;27971;53.902;9.118;2022-09-17T03:06:18;100533.0;;;24.98;28.91
41383;BME280;27971;53.902;9.118;2022-09-17T03:08:27;100535.0;;;24.9;28.89
41383;BME280;27971;53.902;9.118;2022-09-17T03:10:24;100536.0;;;25.02;28.74
41383;BME280;27971;53.902;9.118;2022-09-17T03:12:26;100538.0;;;25.02;28.72
41383;BME280;27971;53.902;9.118;2022-09-17T03:14:29;100537.0;;;25.05;28.69
41383;BME280;27971;53.902;9.118;2022-09-17T03:16:32;100538.0;;;25.04;28.69
41383;BME280;27971;53.902;9.118;2022-09-17T03:18:34;100541.0;;;25.07;28.66
41383;BME280;27971;53.902;9.118;2022-09-17T03:20:36;100544.0;;;24.98;28.71
41383;BME280;27971;53.902;9.118;2022-09-17T03:22:39;100549.0;;;25.0;28.7
41383;BME280;27971;53.902;9.118;2022-09-17T03:24:41;100549.0;;;24.92;28.82
41383;BME280;27971;53.902;9.118;2022-09-17T03:26:44;100554.0;;;24.98;28.76
41383;BME280;27971;53.902;9.118;2022-09-17T03:28:46;100568.0;;;25.08;28.64
41383;BME280;27971;53.902;9.118;2022-09-17T03:30:49;100571.0;;;24.97;28.81
41383;BME280;27971;53.902;9.118;2022-09-17T03:32:51;100571.0;;;24.8;28.93
41383;BME280;27971;53.902;9.118;2022-09-17T03:34:54;100567.0;;;24.93;28.8
41383;BME280;27971;53.902;9.118;2022-09-17T03:36:56;100562.0;;;24.98;28.74
41383;BME280;27971;53.902;9.118;2022-09-17T03:38:58;100556.0;;;24.87;28.83
41383;BME280;27971;53.902;9.118;2022-09-17T03:41:03;100556.0;;;24.85;28.85
41383;BME280;27971;53.902;9.118;2022-09-17T03:43:03;100557.0;;;24.96;28.77
41383;BME280;27971;53.902;9.118;2022-09-17T03:45:07;100553.0;;;24.96;28.73
41383;BME280;27971;53.902;9.118;2022-09-17T03:47:08;100548.0;;;24.92;28.77
41383;BME280;27971;53.902;9.118;2022-09-17T03:49:11;100552.0;;;25.0;28.75
41383;BME280;27971;53.902;9.118;2022-09-17T03:51:13;100553.0;;;24.97;28.75
41383;BME280;27971;53.902;9.118;2022-09-17T03:53:16;100553.0;;;25.07;28.67
41383;BME280;27971;53.902;9.118;2022-09-17T03:55:19;100552.0;;;24.97;28.76
41383;BME280;27971;53.902;9.118;2022-09-17T03:57:22;100549.0;;;24.87;28.86
41383;BME280;27971;53.902;9.118;2022-09-17T03:59:24;100548.0;;;24.88;28.88
41383;BME280;27971;53.902;9.118;2022-09-17T04:01:27;100549.0;;;24.94;28.85
41383;BME280;27971;53.902;9.118;2022-09-17T04:03:30;100546.0;;;24.94;28.83
41383;BME280;27971;53.902;9.118;2022-09-17T04:05:33;100546.0;;;24.92;28.86
41383;BME280;27971;53.902;9.118;2022-09-17T04:07:38;100548.0;;;24.95;28.81
41383;BME280;27971;53.902;9.118;2022-09-17T04:09:39;100550.0;;;24.94;28.79
41383;BME280;27971;53.902;9.118;2022-09-17T04:11:41;100550.0;;;24.89;28.85
41383;BME280;27971;53.902;9.118;2022-09-17T04:13:44;100547.0;;;24.92;28.85
41383;BME280;27971;53.902;9.118;2022-09-17T04:15:47;100547.0;;;24.84;28.82
41383;BME280;27971;53.902;9.118;2022-09-17T04:17:50;100545.0;;;24.92;28.86
41383;BME280;27971;53.902;9.118;2022-09-17T04:19:53;100546.0;;;24.89;28.91
41383;BME280;27971;53.902;9.118;2022-09-17T04:21:55;100548.0;;;24.97;28.8
41383;BME280;27971;53.902;9.118;2022-09-17T04:23:58;100547.0;;;24.96;28.74
41383;BME280;27971;53.902;9.118;2022-09-17T04:26:00;100548.0;;;24.89;28.79
41383;BME280;27971;53.902;9.118;2022-09-17T04:28:04;100549.0;;;24.99;28.65
41383;BME280;27971;53.902;9.118;2022-09-17T04:30:07;100553.0;;;24.96;28.67
41383;BME280;27971;53.902;9.118;2022-09-17T04:32:09;100559.0;;;25.17;28.45
41383;BME280;27971;53.902;9.118;2022-09-17T04:34:12;100558.0;;;25.09;28.5
41383;BME280;27971;53.902;9.118;2022-09-17T04:36:15;100557.0;;;24.96;28.64
41383;BME280;27971;53.902;9.118;2022-09-17T04:38:18;100564.0;;;24.98;28.63
41383;BME280;27971;53.902;9.118;2022-09-17T04:40:21;100571.0;;;24.94;28.7
41383;BME280;27971;53.902;9.118;2022-09-17T04:42:24;100579.0;;;25.05;28.57
41383;BME280;27971;53.902;9.118;2022-09-17T04:44:26;100574.0;;;24.98;28.6
41383;BME280;27971;53.902;9.118;2022-09-17T04:46:30;100571.0;;;25.0;28.64
41383;BME280;27971;53.902;9.118;2022-09-17T04:48:32;100570.0;;;24.8;28.83
41383;BME280;27971;53.902;9.118;2022-09-17T04:50:34;100568.0;;;24.92;28.71
41383;BME280;27971;53.902;9.118;2022-09-17T04:52:41;100567.0;;;24.98;28.68
41383;BME280;27971;53.902;9.118;2022-09-17T04:54:39;100568.0;;;24.81;28.93
41383;BME280;27971;53.902;9.118;2022-09-17T04:56:42;100568.0;;;24.71;29.0
41383;BME280;27971;53.902;9.118;2022-09-17T04:58:44;100570.0;;;24.71;28.98
41383;BME280;27971;53.902;9.118;2022-09-17T05:00:47;100572.0;;;24.67;29.0
41383;BME280;27971;53.902;9.118;2022-09-17T05:02:52;100579.0;;;24.78;28.89
41383;BME280;27971;53.902;9.118;2022-09-17T05:04:52;100593.0;;;24.77;28.95
41383;BME280;27971;53.902;9.118;2022-09-17T05:06:55;100598.0;;;24.71;28.97
41383;BME280;27971;53.902;9.118;2022-09-17T05:08:57;100598.0;;;24.67;29.02
41383;BME280;27971;53.902;9.118;2022-09-17T05:11:01;100601.0;;;24.52;29.1
41383;BME280;27971;53.902;9.118;2022-09-17T05:13:02;100599.0;;;24.38;29.23
41383;BME280;27971;53.902;9.118;2022-09-17T05:15:05;100596.0;;;23.92;29.55
41383;BME280;27971;53.902;9.118;2022-09-17T05:17:08;100588.0;;;23.62;29.66
41383;BME280;27971;53.902;9.118;2022-09-17T05:19:10;100587.0;;;22.63;30.55
41383;BME280;27971;53.902;9.118;2022-09-17T05:21:14;100586.0;;;22.09;31.08
41383;BME280;27971;53.902;9.118;2022-09-17T05:23:16;100589.0;;;21.67;31.52
41383;BME280;27971;53.902;9.118;2022-09-17T05:25:21;100593.0;;;21.89;31.39
41383;BME280;27971;53.902;9.118;2022-09-17T05:27:21;100593.0;;;20.91;32.42
41383;BME280;27971;53.902;9.118;2022-09-17T05:29:24;100592.0;;;20.31;32.98
41383;BME280;27971;53.902;9.118;2022-09-17T05:31:26;100600.0;;;21.41;31.89
41383;BME280;27971;53.902;9.118;2022-09-17T05:33:29;100605.0;;;20.83;32.39
41383;BME280;27971;53.902;9.118;2022-09-17T05:35:32;100608.0;;;19.71;33.46
41383;BME280;27971;53.902;9.118;2022-09-17T05:37:33;100613.0;;;20.11;33.1
41383;BME280;27971;53.902;9.118;2022-09-17T05:39:36;100617.0;;;20.0;33.13
41383;BME280;27971;53.902;9.118;2022-09-17T05:41:38;100626.0;;;20.8;32.37
41383;BME280;27971;53.902;9.118;2022-09-17T05:43:42;100635.0;;;21.61;31.72
41383;BME280;27971;53.902;9.118;2022-09-17T05:45:43;100633.0;;;21.22;32.22
41383;BME280;27971;53.902;9.118;2022-09-17T05:47:45;100621.0;;;20.37;32.97
41383;BME280;27971;53.902;9.118;2022-09-17T05:49:48;100630.0;;;20.48;32.97
41383;BME280;27971;53.902;9.118;2022-09-17T05:51:50;100639.0;;;21.21;32.15
41383;BME280;27971;53.902;9.118;2022-09-17T05:53:53;100636.0;;;21.02;32.26
41383;BME280;27971;53.902;9.118;2022-09-17T05:55:56;100627.0;;;22.03;31.11
41383;BME280;27971;53.902;9.118;2022-09-17T05:57:58;100621.0;;;22.77;30.43
41383;BME280;27971;53.902;9.118;2022-09-17T06:00:01;100616.0;;;23.12;29.88
41383;BME280;27971;53.902;9.118;2022-09-17T06:02:03;100615.0;;;23.56;29.65
41383;BME280;27971;53.902;9.118;2022-09-17T06:04:06;100613.0;;;23.5;29.71
41383;BME280;27971;53.902;9.118;2022-09-17T06:06:08;100610.0;;;22.75;30.4
41383;BME280;27971;53.902;9.118;2022-09-17T06:08:10;100604.0;;;23.17;30.15
41383;BME280;27971;53.902;9.118;2022-09-17T06:10:12;100603.0;;;22.93;30.43
41383;BME280;27971;53.902;9.118;2022-09-17T06:12:15;100604.0;;;22.64;30.69
41383;BME280;27971;53.902;9.118;2022-09-17T06:14:17;100603.0;;;22.69;30.52
41383;BME280;27971;53.902;9.118;2022-09-17T06:16:19;100607.0;;;22.67;30.51
41383;BME280;27971;53.902;9.118;2022-09-17T06:18:22;100617.0;;;23.63;29.55
41383;BME280;27971;53.902;9.118;2022-09-17T06:20:24;100625.0;;;23.04;29.87
41383;BME280;27971;53.902;9.118;2022-09-17T06:22:27;100630.0;;;23.32;29.46
41383;BME280;27971;53.902;9.118;2022-09-17T06:24:30;100634.0;;;24.18;28.54
41383;BME280;27971;53.902;9.118;2022-09-17T06:26:33;100630.0;;;23.28;29.36
41383;BME280;27971;53.902;9.118;2022-09-17T06:28:35;100630.0;;;22.81;29.89
41383;BME280;27971;53.902;9.118;2022-09-17T06:30:38;100636.0;;;22.43;30.36
41383;BME280;27971;53.902;9.118;2022-09-17T06:32:40;100636.0;;;22.35;30.65
41383;BME280;27971;53.902;9.118;2022-09-17T06:34:43;100635.0;;;22.48;30.35
41383;BME280;27971;53.902;9.118;2022-09-17T06:36:46;100636.0;;;22.44;30.37
41383;BME280;27971;53.902;9.118;2022-09-17T06:38:48;100635.0;;;23.12;29.74
41383;BME280;27971;53.902;9.118;2022-09-17T06:40:51;100636.0;;;22.64;30.14
41383;BME280;27971;53.902;9.118;2022-09-17T06:42:56;100638.0;;;22.5;30.39
41383;BME280;27971;53.902;9.118;2022-09-17T06:44:55;100641.0;;;21.77;31.08
41383;BME280;27971;53.902;9.118;2022-09-17T06:46:58;100641.0;;;21.66;31.27
41383;BME280;27971;53.902;9.118;2022-09-17T06:49:00;100638.0;;;21.9;30.89
41383;BME280;27971;53.902;9.118;2022-09-17T06:51:05;100637.0;;;21.7;30.97
41383;BME280;27971;53.902;9.118;2022-09-17T06:53:08;100634.0;;;21.42;31.53
41383;BME280;27971;53.902;9.118;2022-09-17T06:55:09;100630.0;;;22.1;30.76
41383;BME280;27971;53.902;9.118;2022-09-17T06:57:11;100629.0;;;22.38;30.39
41383;BME280;27971;53.902;9.118;2022-09-17T06:59:14;100628.0;;;22.16;30.55
41383;BME280;27971;53.902;9.118;2022-09-17T07:01:16;100625.0;;;22.0;30.69
41383;BME280;27971;53.902;9.118;2022-09-17T07:03:19;100623.0;;;22.48;30.32
41383;BME280;27971;53.902;9.118;2022-09-17T07:05:22;100623.0;;;22.85;29.97
41383;BME280;27971;53.902;9.118;2022-09-17T07:07:24;100620.0;;;22.5;30.35
41383;BME280;27971;53.902;9.118;2022-09-17T07:09:27;100620.0;;;23.92;29.0
41383;BME280;27971;53.902;9.118;2022-09-17T07:11:30;100620.0;;;22.63;30.08
41383;BME280;27971;53.902;9.118;2022-09-17T07:13:32;100619.0;;;22.88;29.68
41383;BME280;27971;53.902;9.118;2022-09-17T07:15:35;100617.0;;;23.08;29.65
41383;BME280;27971;53.902;9.118;2022-09-17T07:17:37;100617.0;;;22.29;30.33
41383;BME280;27971;53.902;9.118;2022-09-17T07:19:40;100616.0;;;22.86;30.12
41383;BME280;27971;53.902;9.118;2022-09-17T07:21:42;100615.0;;;23.55;29.62
41383;BME280;27971;53.902;9.118;2022-09-17T07:23:45;100612.0;;;24.2;28.83
41383;BME280;27971;53.902;9.118;2022-09-17T07:25:50;100613.0;;;24.25;28.72
41383;BME280;27971;53.902;9.118;2022-09-17T07:27:50;100613.0;;;24.07;28.86
41383;BME280;27971;53.902;9.118;2022-09-17T07:29:53;100610.0;;;23.29;29.59
41383;BME280;27971;53.902;9.118;2022-09-17T07:31:56;100609.0;;;23.3;29.58
41383;BME280;27971;53.902;9.118;2022-09-17T07:33:58;100608.0;;;22.8;30.0
41383;BME280;27971;53.902;9.118;2022-09-17T07:36:02;100612.0;;;22.36;30.45
41383;BME280;27971;53.902;9.118;2022-09-17T07:38:02;100613.0;;;24.12;28.82
41383;BME280;27971;53.902;9.118;2022-09-17T07:40:05;100608.0;;;24.79;27.92
41383;BME280;27971;53.902;9.118;2022-09-17T07:42:07;100605.0;;;24.74;27.82
41383;BME280;27971;53.902;9.118;2022-09-17T07:44:09;100604.0;;;24.83;27.78
41383;BME280;27971;53.902;9.118;2022-09-17T07:46:14;100603.0;;;25.04;27.61
41383;BME280;27971;53.902;9.118;2022-09-17T07:48:14;100600.0;;;24.73;27.74
41383;BME280;27971;53.902;9.118;2022-09-17T07:50:16;100598.0;;;24.96;27.49
41383;BME280;27971;53.902;9.118;2022-09-17T07:52:19;100597.0;;;25.39;27.12
41383;BME280;27971;53.902;9.118;2022-09-17T07:54:22;100597.0;;;25.71;26.84
41383;BME280;27971;53.902;9.118;2022-09-17T07:56:25;100593.0;;;25.63;26.98
41383;BME280;27971;53.902;9.118;2022-09-17T07:58:29;100590.0;;;25.57;27.01
41383;BME280;27971;53.902;9.118;2022-09-17T08:00:29;100591.0;;;25.5;27.13
41383;BME280;27971;53.902;9.118;2022-09-17T08:02:32;100591.0;;;24.49;27.9
41383;BME280;27971;53.902;9.118;2022-09-17T08:04:34;100591.0;;;24.87;27.76
41383;BME280;27971;53.902;9.118;2022-09-17T08:06:37;100591.0;;;25.46;27.16
41383;BME280;27971;53.902;9.118;2022-09-17T08:08:39;100590.0;;;25.54;27.03
41383;BME280;27971;53.902;9.118;2022-09-17T08:10:42;100591.0;;;25.49;27.06
41383;BME280;27971;53.902;9.118;2022-09-17T08:12:44;100596.0;;;25.02;27.41
41383;BME280;27971;53.902;9.118;2022-09-17T08:14:47;100602.0;;;24.01;28.24
41383;BME280;27971;53.902;9.118;2022-09-17T08:16:49;100604.0;;;25.55;27.05
41383;BME280;27971;53.902;9.118;2022-09-17T08:18:54;100605.0;;;25.49;27.14
41383;BME280;27971;53.902;9.118;2022-09-17T08:20:56;100611.0;;;24.36;28.15
41383;BME280;27971;53.902;9.118;2022-09-17T08:22:59;100616.0;;;25.15;27.71
41383;BME280;27971;53.902;9.118;2022-09-17T08:25:01;100620.0;;;24.82;27.93
41383;BME280;27971;53.902;9.118;2022-09-17T08:27:04;100626.0;;;21.12;31.27
41383;BME280;27971;53.902;9.118;2022-09-17T08:29:06;100613.0;;;23.55;29.19
41383;BME280;27971;53.902;9.118;2022-09-17T08:31:08;100607.0;;;24.95;27.86
41383;BME280;27971;53.902;9.118;2022-09-17T08:33:11;100601.0;;;25.09;27.77
41383;BME280;27971;53.902;9.118;2022-09-17T08:35:14;100599.0;;;24.6;28.29
41383;BME280;27971;53.902;9.118;2022-09-17T08:37:16;100593.0;;;24.33;28.64
41383;BME280;27971;53.902;9.118;2022-09-17T08:39:19;100588.0;;;24.21;28.74
41383;BME280;27971;53.902;9.118;2022-09-17T08:41:27;100583.0;;;24.51;28.46
41383;BME280;27971;53.902;9.118;2022-09-17T08:43:24;100581.0;;;24.65;28.4
41383;BME280;27971;53.902;9.118;2022-09-17T08:45:26;100581.0;;;23.93;28.98
41383;BME280;27971;53.902;9.118;2022-09-17T08:47:33;100582.0;;;23.77;29.21
41383;BME280;27971;53.902;9.118;2022-09-17T08:49:34;100581.0;;;24.27;28.77
41383;BME280;27971;53.902;9.118;2022-09-17T08:51:43;100581.0;;;24.71;27.74
41383;BME280;27971;53.902;9.118;2022-09-17T08:53:45;100585.0;;;25.08;27.49
41383;BME280;27971;53.902;9.118;2022-09-17T08:55:44;100583.0;;;24.41;28.08
41383;BME280;27971;53.902;9.118;2022-09-17T08:57:49;100583.0;;;23.58;28.94
41383;BME280;27971;53.902;9.118;2022-09-17T08:59:53;100577.0;;;24.33;28.54
41383;BME280;27971;53.902;9.118;2022-09-17T09:01:55;100574.0;;;24.28;28.58
41383;BME280;27971;53.902;9.118;2022-09-17T09:04:04;100574.0;;;24.7;28.24
41383;BME280;27971;53.902;9.118;2022-09-17T09:05:53;100579.0;;;23.78;29.06
41383;BME280;27971;53.902;9.118;2022-09-17T09:08:01;100579.0;;;23.8;29.05
41383;BME280;27971;53.902;9.118;2022-09-17T09:10:05;100580.0;;;22.96;29.94
41383;BME280;27971;53.902;9.118;2022-09-17T09:12:03;100581.0;;;22.96;30.05
41383;BME280;27971;53.902;9.118;2022-09-17T09:14:06;100577.0;;;23.71;29.27
41383;BME280;27971;53.902;9.118;2022-09-17T09:16:12;100574.0;;;24.63;28.39
41383;BME280;27971;53.902;9.118;2022-09-17T09:18:16;100578.0;;;24.43;28.55
41383;BME280;27971;53.902;9.118;2022-09-17T09:20:15;100577.0;;;24.46;28.52
41383;BME280;27971;53.902;9.118;2022-09-17T09:22:30;100577.0;;;23.57;29.39
41383;BME280;27971;53.902;9.118;2022-09-17T09:24:22;100571.0;;;24.89;27.92
41383;BME280;27971;53.902;9.118;2022-09-17T09:26:22;100570.0;;;25.07;27.73
41383;BME280;27971;53.902;9.118;2022-09-17T09:28:34;100568.0;;;25.14;27.64
41383;BME280;27971;53.902;9.118;2022-09-17T09:30:29;100566.0;;;25.09;27.77
41383;BME280;27971;53.902;9.118;2022-09-17T09:32:40;100570.0;;;25.2;27.35
41383;BME280;27971;53.902;9.118;2022-09-17T09:34:32;100576.0;;;24.97;27.57
41383;BME280;27971;53.902;9.118;2022-09-17T09:36:33;100580.0;;;25.21;27.26
41383;BME280;27971;53.902;9.118;2022-09-17T09:38:39;100581.0;;;25.04;27.47
41383;BME280;27971;53.902;9.118;2022-09-17T09:40:42;100581.0;;;25.26;27.55
41383;BME280;27971;53.902;9.118;2022-09-17T09:42:42;100578.0;;;24.87;28.1
41383;BME280;27971;53.902;9.118;2022-09-17T09:44:43;100578.0;;;23.77;29.1
41383;BME280;27971;53.902;9.118;2022-09-17T09:46:59;100577.0;;;24.49;28.38
41383;BME280;27971;53.902;9.118;2022-09-17T09:48:54;100580.0;;;24.09;28.94
41383;BME280;27971;53.902;9.118;2022-09-17T09:51:05;100584.0;;;23.07;29.72
41383;BME280;27971;53.902;9.118;2022-09-17T09:53:03;100582.0;;;23.42;29.56
41383;BME280;27971;53.902;9.118;2022-09-17T09:55:05;100578.0;;;23.25;29.65
41383;BME280;27971;53.902;9.118;2022-09-17T09:57:03;100572.0;;;22.74;30.06
41383;BME280;27971;53.902;9.118;2022-09-17T09:59:06;100562.0;;;22.89;29.88
41383;BME280;27971;53.902;9.118;2022-09-17T10:01:11;100558.0;;;22.68;30.08
41383;BME280;27971;53.902;9.118;2022-09-17T10:03:13;100554.0;;;23.77;29.2
41383;BME280;27971;53.902;9.118;2022-09-17T10:05:12;100547.0;;;23.07;29.7
41383;BME280;27971;53.902;9.118;2022-09-17T10:07:13;100545.0;;;22.72;30.04
41383;BME280;27971;53.902;9.118;2022-09-17T10:09:17;100542.0;;;22.64;30.13
41383;BME280;27971;53.902;9.118;2022-09-17T10:11:21;100539.0;;;22.31;30.54
41383;BME280;27971;53.902;9.118;2022-09-17T10:13:22;100538.0;;;22.89;30.07
41383;BME280;27971;53.902;9.118;2022-09-17T10:15:27;100536.0;;;22.7;30.04
41383;BME280;27971;53.902;9.118;2022-09-17T10:17:27;100529.0;;;22.29;30.32
41383;BME280;27971;53.902;9.118;2022-09-17T10:19:29;100523.0;;;22.61;30.02
41383;BME280;27971;53.902;9.118;2022-09-17T10:21:33;100518.0;;;23.14;29.57
41383;BME280;27971;53.902;9.118;2022-09-17T10:23:39;100514.0;;;22.54;30.15
41383;BME280;27971;53.902;9.118;2022-09-17T10:25:41;100514.0;;;22.76;30.06
41383;BME280;27971;53.902;9.118;2022-09-17T10:27:42;100516.0;;;23.15;29.56
41383;BME280;27971;53.902;9.118;2022-09-17T10:29:43;100519.0;;;22.65;30.02
41383;BME280;27971;53.902;9.118;2022-09-17T10:31:47;100519.0;;;22.24;30.43
41383;BME280;27971;53.902;9.118;2022-09-17T10:33:55;100521.0;;;22.36;30.42
41383;BME280;27971;53.902;9.118;2022-09-17T10:35:57;100522.0;;;23.07;29.78
41383;BME280;27971;53.902;9.118;2022-09-17T10:37:53;100524.0;;;24.35;28.51
41383;BME280;27971;53.902;9.118;2022-09-17T10:39:56;100526.0;;;23.28;29.36
41383;BME280;27971;53.902;9.118;2022-09-17T10:42:00;100526.0;;;23.78;29.02
41383;BME280;27971;53.902;9.118;2022-09-17T10:44:16;100527.0;;;23.51;29.17
41383;BME280;27971;53.902;9.118;2022-09-17T10:46:04;100524.0;;;23.76;29.12
41383;BME280;27971;53.902;9.118;2022-09-17T10:48:14;100521.0;;;23.68;29.22
41383;BME280;27971;53.902;9.118;2022-09-17T10:50:16;100523.0;;;23.7;29.34